Time;durP1;ratioP1;P1;durP2;ratioP2;P2;SDS_P1;SDS_P2;PMS_P1;PMS_P2;Temp;Humidity;BMP_temperature;BMP_pressure;BME280_temperature;BME280_humidity;BME280_pressure;Samples;Min_cycle;Max_cycle;Signal;HPM_P1;HPM_P2
2022/04/23 00:04:20;;;;;;;73.47;36.67;;;;;;;6.95;80.58;100345.05;5194994;56;1136800;-71
2022/04/23 00:09:25;;;;;;;68.37;35.63;;;;;;;6.98;81.35;100349.27;5154225;56;1140805;-71
2022/04/23 00:14:31;;;;;;;85.62;38.10;;;;;;;7.01;81.88;100352.55;5177883;56;1139020;-69
2022/04/23 00:19:38;;;;;;;86.17;42.48;;;;;;;6.88;80.93;100344.22;5205394;56;1138933;-71
2022/04/23 00:24:44;;;;;;;89.83;40.87;;;;;;;6.88;80.93;100344.22;5243215;56;1139211;-72
2022/04/23 00:29:50;;;;;;;72.63;34.57;;;;;;;6.34;80.52;100339.78;5158660;57;1139031;-70
2022/04/23 00:34:56;;;;;;;74.70;30.27;;;;;;;5.95;81.40;100337.86;5136444;57;1139296;-72
2022/04/23 00:40:06;;;;;;;41.90;20.63;;;;;;;5.61;82.21;100335.56;5163794;57;1139159;-69
2022/04/23 00:45:10;;;;;;;35.10;19.73;;;;;;;5.43;82.87;100340.58;5141773;56;1141199;-72
2022/04/23 00:50:23;;;;;;;65.83;29.93;;;;;;;5.49;84.03;100348.95;5070144;57;1141100;-71
2022/04/23 00:55:25;;;;;;;72.67;32.77;;;;;;;5.63;84.86;100342.88;5125693;57;1138911;-69
2022/04/23 01:00:33;;;;;;;76.30;39.40;;;;;;;5.76;84.82;100332.01;5127049;57;1139215;-70
2022/04/23 01:05:40;;;;;;;78.27;37.00;;;;;;;5.83;84.67;100329.37;5126940;57;1139224;-69
2022/04/23 01:10:53;;;;;;;67.87;33.30;;;;;;;5.87;84.51;100330.03;5122100;57;1138967;-66
2022/04/23 01:16:04;;;;;;;67.83;31.33;;;;;;;5.80;84.18;100331.36;4913003;59;1139019;-68
2022/04/23 01:21:10;;;;;;;66.57;33.57;;;;;;;5.64;83.97;100338.00;5124266;57;1139236;-67
2022/04/23 01:26:29;;;;;;;74.87;33.20;;;;;;;5.57;84.79;100340.14;5126878;57;1139209;-68
2022/04/23 01:31:35;;;;;;;65.43;31.30;;;;;;;5.60;84.89;100341.27;5121363;57;1138955;-69
2022/04/23 01:36:40;;;;;;;55.60;27.93;;;;;;;5.37;84.15;100339.62;5126862;57;1139309;-68
2022/04/23 01:41:47;;;;;;;55.83;26.43;;;;;;;5.18;84.18;100343.34;5126931;57;1138929;-67
2022/04/23 01:46:52;;;;;;;56.23;26.40;;;;;;;5.20;85.27;100328.80;5113051;57;1141337;-68
2022/04/23 01:51:58;;;;;;;50.93;26.50;;;;;;;5.34;85.54;100321.00;5037563;58;1141065;-67
2022/04/23 01:57:04;;;;;;;52.60;25.67;;;;;;;5.39;85.83;100324.64;4915484;59;1139060;-69
2022/04/23 02:02:10;;;;;;;46.30;23.73;;;;;;;5.27;84.93;100326.22;4953127;58;1139197;-67
2022/04/23 02:07:16;;;;;;;50.37;25.80;;;;;;;5.11;84.83;100318.87;4955611;59;1139016;-69
2022/04/23 02:12:21;;;;;;;51.27;26.20;;;;;;;5.05;85.45;100312.66;4952311;59;1139358;-70
2022/04/23 02:17:39;;;;;;;47.73;26.03;;;;;;;4.97;85.16;100310.50;4989953;59;1139042;-68
2022/04/23 02:22:47;;;;;;;35.57;19.97;;;;;;;5.03;86.24;100307.53;4989865;59;1139295;-68
2022/04/23 02:27:53;;;;;;;57.17;26.03;;;;;;;5.00;85.69;100309.02;4915757;59;1139030;-67
2022/04/23 02:32:59;;;;;;;42.67;20.52;;;;;;;4.84;85.31;100309.05;4915505;59;1139195;-69
2022/04/23 02:38:05;;;;;;;47.83;23.63;;;;;;;4.84;85.66;100309.52;5012220;58;1141444;-68
2022/04/23 02:43:12;;;;;;;45.37;22.80;;;;;;;4.93;86.49;100302.42;5027832;58;1138948;-69
2022/04/23 02:48:18;;;;;;;39.93;20.93;;;;;;;4.76;85.86;100304.70;5024919;58;1137241;-69
2022/04/23 02:53:24;;;;;;;40.47;21.63;;;;;;;4.44;86.03;100303.05;5016074;58;1136839;-67
2022/04/23 02:58:29;;;;;;;37.55;21.77;;;;;;;4.23;86.55;100298.09;5038389;58;1136880;-66
2022/04/23 03:03:37;;;;;;;34.17;19.60;;;;;;;4.34;88.05;100301.88;5075796;58;1136928;-67
2022/04/23 03:08:43;;;;;;;30.90;17.47;;;;;;;4.36;87.54;100299.56;5075793;58;1137102;-67
2022/04/23 03:13:49;;;;;;;32.75;17.70;;;;;;;4.43;87.83;100295.66;5075876;58;1136923;-69
2022/04/23 03:18:56;;;;;;;32.57;19.90;;;;;;;4.61;88.19;100295.09;5075731;58;1139245;-67
2022/04/23 03:24:02;;;;;;;32.97;20.33;;;;;;;4.74;87.98;100290.00;5071463;58;1137172;-70
2022/04/23 03:29:08;;;;;;;34.97;19.23;;;;;;;4.79;87.91;100283.58;5075829;58;1136885;-68
2022/04/23 03:34:15;;;;;;;32.90;17.90;;;;;;;4.68;86.96;100287.75;5075742;58;1136902;-69
2022/04/23 03:39:21;;;;;;;38.20;20.80;;;;;;;4.46;86.54;100286.80;5075733;58;1136960;-66
2022/04/23 03:44:27;;;;;;;38.47;20.57;;;;;;;4.36;87.67;100289.09;5076237;58;1136914;-69
2022/04/23 03:49:33;;;;;;;40.10;20.97;;;;;;;4.38;88.19;100277.23;5179122;56;1137198;-67
2022/04/23 03:54:39;;;;;;;33.93;18.47;;;;;;;4.38;87.47;100291.63;5161961;57;1136796;-67
2022/04/23 03:59:44;;;;;;;33.83;19.50;;;;;;;4.23;87.09;100288.94;5161948;56;1136937;-69
2022/04/23 04:04:54;;;;;;;35.00;18.77;;;;;;;4.11;87.56;100280.91;5161758;56;1136924;-68
2022/04/23 04:10:01;;;;;;;37.13;21.13;;;;;;;4.27;89.29;100278.30;5161810;56;1139065;-69
2022/04/23 04:15:10;;;;;;;40.47;23.10;;;;;;;4.47;89.90;100272.30;5161819;56;1134889;-67
2022/04/23 04:20:18;;;;;;;40.65;20.50;;;;;;;4.55;89.06;100269.27;5172104;57;1138909;-69
2022/04/23 04:25:24;;;;;;;37.27;17.33;;;;;;;4.39;88.57;100268.45;5161874;57;1139225;-67
2022/04/23 04:31:46;;;;;;;29.80;18.20;;;;;;;4.24;88.76;100272.30;5162166;56;1139090;-67
2022/04/23 04:35:37;;;;;;;34.40;19.20;;;;;;;4.06;89.41;100268.53;5159064;56;1139046;-67
2022/04/23 04:40:42;;;;;;;38.60;19.77;;;;;;;4.01;90.29;100266.16;5161762;56;1139023;-68
2022/04/23 04:45:48;;;;;;;42.03;24.63;;;;;;;4.22;92.26;100268.08;5161567;56;1141091;-69
2022/04/23 04:50:54;;;;;;;59.87;28.70;;;;;;;4.45;92.32;100273.31;5161750;57;1141064;-68
2022/04/23 04:56:00;;;;;;;96.50;40.23;;;;;;;4.45;92.32;100272.01;5161641;57;1139105;-69
2022/04/23 05:01:06;;;;;;;78.67;34.27;;;;;;;4.38;93.30;100274.61;5161524;57;1139234;-70
2022/04/23 05:06:12;;;;;;;84.43;36.50;;;;;;;4.30;93.99;100267.63;5161702;57;1138970;-68
2022/04/23 05:11:18;;;;;;;41.40;24.00;;;;;;;4.30;94.62;100264.55;5161607;57;1139105;-68
2022/04/23 05:16:24;;;;;;;43.20;23.05;;;;;;;4.42;95.36;100270.90;5161420;57;1141085;-67
2022/04/23 05:21:30;;;;;;;45.20;24.10;;;;;;;4.63;96.13;100271.44;5161312;57;1141077;-69
2022/04/23 05:26:36;;;;;;;40.50;22.13;;;;;;;4.89;96.92;100269.00;5161477;57;1141407;-69
2022/04/23 05:31:42;;;;;;;41.87;22.40;;;;;;;5.11;97.75;100271.22;5161508;57;1138997;-69
2022/04/23 05:36:47;;;;;;;38.23;21.23;;;;;;;5.32;98.47;100267.80;5161671;57;1139098;-70
2022/04/23 05:41:53;;;;;;;35.70;20.70;;;;;;;5.55;98.75;100267.24;5176245;56;1141257;-68
2022/04/23 05:46:59;;;;;;;35.77;18.50;;;;;;;5.83;98.87;100266.38;5190520;56;1140639;-66
2022/04/23 05:52:05;;;;;;;31.10;16.90;;;;;;;6.17;99.70;100270.41;5140997;57;1141251;-68
2022/04/23 05:57:11;;;;;;;20.37;12.17;;;;;;;6.43;99.89;100263.48;5114053;57;1138980;-69
2022/04/23 06:02:17;;;;;;;14.17;9.47;;;;;;;6.69;99.61;100261.80;5122976;57;1139081;-69
2022/04/23 06:07:23;;;;;;;18.13;11.83;;;;;;;6.95;99.16;100261.38;5099961;57;1138963;-68
2022/04/23 06:12:28;;;;;;;19.70;12.53;;;;;;;7.15;99.72;100264.84;5116626;57;1141142;-70
2022/04/23 06:17:34;;;;;;;21.33;12.13;;;;;;;7.41;99.20;100263.06;5163603;57;1139241;-70
2022/04/23 06:22:39;;;;;;;19.13;11.83;;;;;;;7.71;99.09;100258.31;5163782;57;1141083;-69
2022/04/23 06:27:45;;;;;;;16.83;10.27;;;;;;;8.07;99.02;100261.47;5163597;57;1141106;-68
2022/04/23 06:32:52;;;;;;;17.60;10.83;;;;;;;8.41;98.65;100262.52;5164206;57;1141170;-68
2022/04/23 06:37:58;;;;;;;24.07;12.60;;;;;;;8.65;98.01;100261.22;5164134;57;1141071;-67
2022/04/23 06:43:04;;;;;;;31.27;12.40;;;;;;;8.97;98.27;100261.47;5164313;57;1141304;-70
2022/04/23 06:48:11;;;;;;;18.70;11.27;;;;;;;9.24;97.06;100254.58;5155445;57;1141119;-66
2022/04/23 06:53:21;;;;;;;18.07;10.47;;;;;;;9.58;96.56;100254.63;5095288;57;1141050;-70
2022/04/23 06:58:29;;;;;;;25.93;12.10;;;;;;;9.79;95.94;100256.42;5080809;57;1141325;-70
2022/04/23 07:03:34;;;;;;;15.03;10.43;;;;;;;9.93;95.58;100248.72;5155159;57;1141035;-71
2022/04/23 07:08:40;;;;;;;15.13;9.03;;;;;;;10.24;96.58;100249.80;5125073;57;1141147;-68
2022/04/23 07:13:46;;;;;;;13.58;9.53;;;;;;;10.72;97.07;100240.16;5121510;57;1141117;-70
2022/04/23 07:18:58;;;;;;;27.90;10.13;;;;;;;11.10;94.91;100240.94;5106569;57;1141069;-70
2022/04/23 07:24:11;;;;;;;11.07;6.83;;;;;;;11.35;94.76;100235.72;5120289;57;1143200;-75
2022/04/23 07:29:16;;;;;;;14.97;8.20;;;;;;;11.69;93.35;100230.53;5163324;57;1138996;-72
2022/04/23 07:39:45;;;;;;;25.47;6.37;;;;;;;12.23;91.09;100234.14;5164291;57;1139055;-73
2022/04/23 07:44:50;;;;;;;14.83;6.33;;;;;;;12.41;88.77;100226.36;5164026;57;1139010;-75
2022/04/23 07:49:58;;;;;;;9.60;6.17;;;;;;;12.64;89.50;100223.81;5139373;57;1139058;-74
2022/04/23 07:55:05;;;;;;;14.87;6.30;;;;;;;12.80;86.87;100222.41;5161685;57;1136879;-73
2022/04/23 08:00:12;;;;;;;17.00;9.30;;;;;;;12.93;86.12;100221.62;5163848;56;1139256;-73
2022/04/23 08:05:18;;;;;;;6.63;5.93;;;;;;;13.16;86.23;100208.41;5243816;56;1139001;-76
2022/04/23 08:10:23;;;;;;;14.37;6.70;;;;;;;13.31;81.60;100209.63;5248160;56;1136899;-76
2022/04/23 08:15:30;;;;;;;14.33;6.30;;;;;;;13.51;84.13;100201.11;5110996;57;1138983;-77
2022/04/23 08:20:37;;;;;;;12.13;6.77;;;;;;;13.69;83.24;100198.03;5161497;57;1139014;-75
2022/04/23 08:25:45;;;;;;;8.83;5.80;;;;;;;13.84;81.67;100201.53;5161433;57;1139304;-77
2022/04/23 08:30:50;;;;;;;14.20;6.43;;;;;;;14.02;79.86;100193.12;5168521;56;1136991;-75
2022/04/23 08:35:56;;;;;;;8.37;5.53;;;;;;;14.30;80.60;100200.56;5188146;56;1139273;-75
2022/04/23 08:41:06;;;;;;;13.13;7.20;;;;;;;14.51;76.87;100197.16;5179350;56;1134860;-76
2022/04/23 08:46:12;;;;;;;12.10;6.33;;;;;;;14.68;77.75;100192.30;5207673;56;1141323;-75
2022/04/23 08:51:20;;;;;;;7.27;6.10;;;;;;;14.85;77.32;100193.77;5180248;56;1140972;-76
2022/04/23 08:56:26;;;;;;;8.87;6.43;;;;;;;15.13;75.79;100176.66;5221583;56;1139092;-74
2022/04/23 09:01:33;;;;;;;13.20;5.60;;;;;;;15.27;71.82;100182.77;5221648;56;1138860;-77
2022/04/23 09:06:42;;;;;;;8.10;5.67;;;;;;;15.36;73.31;100178.31;5221547;56;1141229;-77
2022/04/23 09:11:57;;;;;;;10.20;4.40;;;;;;;15.45;74.18;100174.19;5230039;56;1139042;-76
2022/04/23 09:27:52;;;;;;;8.47;5.20;;;;;;;16.04;70.19;100176.98;5241511;56;1138910;-74
2022/04/23 09:33:00;;;;;;;10.83;6.33;;;;;;;16.24;70.33;100168.17;5242225;56;1138930;-73
2022/04/23 09:38:19;;;;;;;4.83;4.43;;;;;;;16.23;66.63;100167.84;5242241;56;1140975;-76
2022/04/23 09:43:34;;;;;;;5.13;4.73;;;;;;;16.32;68.38;100156.20;5242337;56;1138978;-76
2022/04/23 09:48:48;;;;;;;4.70;4.20;;;;;;;16.39;66.93;100152.69;5242437;56;1139300;-76
2022/04/23 09:53:53;;;;;;;8.33;3.90;;;;;;;16.48;63.24;100154.38;4995900;58;1139087;-74
2022/04/23 09:58:58;;;;;;;7.60;4.33;;;;;;;16.33;60.82;100153.36;5219835;56;1139236;-70
2022/04/23 10:04:06;;;;;;;12.53;5.13;;;;;;;16.50;61.12;100136.83;5193210;56;1138938;-74
2022/04/23 10:09:15;;;;;;;5.63;4.40;;;;;;;16.64;60.81;100147.41;5161993;56;1141083;-73
2022/04/23 10:14:22;;;;;;;6.50;4.60;;;;;;;16.49;61.12;100145.37;5162194;56;1138968;-72
2022/04/23 10:19:30;;;;;;;5.53;5.03;;;;;;;16.29;60.37;100148.52;5161960;56;1139093;-76
2022/04/23 10:24:58;;;;;;;9.75;4.47;;;;;;;16.30;61.38;100144.84;5161775;57;1138996;-75
2022/04/23 10:30:06;;;;;;;7.97;5.53;;;;;;;16.34;61.64;100144.36;5151339;56;1137259;-73
2022/04/23 10:35:26;;;;;;;8.47;4.70;;;;;;;16.19;61.35;100146.81;5208439;56;1136804;-74
2022/04/23 10:40:35;;;;;;;11.30;4.60;;;;;;;16.03;60.60;100150.81;5189588;56;1136914;-74
2022/04/23 10:45:42;;;;;;;11.10;5.00;;;;;;;15.96;60.87;100147.11;5127578;56;1138366;-76
2022/04/23 10:51:15;;;;;;;18.12;5.78;;;;;;;15.86;60.67;100137.09;5185400;56;1138939;-77
2022/04/23 10:56:21;;;;;;;11.93;5.40;;;;;;;15.78;61.16;100138.38;5202542;56;1139336;-78
2022/04/23 11:01:30;;;;;;;75.93;9.23;;;;;;;15.71;61.79;100126.20;5173956;56;1136944;-73
2022/04/23 11:12:30;;;;;;;9.43;5.43;;;;;;;15.73;62.85;100125.55;5172955;56;1138948;-77
2022/04/23 11:17:54;;;;;;;4.53;4.13;;;;;;;15.75;61.76;100122.20;5206819;56;1138999;-72
2022/04/23 11:23:01;;;;;;;4.17;3.57;;;;;;;15.69;61.37;100123.36;5202513;56;1138925;-76
2022/04/23 11:28:23;;;;;;;6.10;4.10;;;;;;;15.87;62.41;100119.25;5211656;56;1139288;-73
2022/04/23 11:33:28;;;;;;;7.50;3.57;;;;;;;16.02;61.60;100113.12;5242674;56;1139007;-75
2022/04/23 11:38:50;;;;;;;7.90;4.17;;;;;;;16.40;61.78;100101.47;5196929;56;1138908;-77
2022/04/23 11:43:56;;;;;;;9.93;3.70;;;;;;;16.47;59.96;100103.83;5231049;56;1139099;-73
2022/04/23 11:49:02;;;;;;;15.30;3.53;;;;;;;16.48;59.81;100104.16;5185880;56;1139017;-73
2022/04/23 11:54:08;;;;;;;12.50;5.27;;;;;;;16.44;59.42;100100.98;5160130;56;1141023;-77
2022/04/23 11:59:16;;;;;;;59.53;36.00;;;;;;;16.48;60.08;100093.48;5203057;56;1141594;-73
2022/04/23 12:04:23;;;;;;;101.50;63.93;;;;;;;16.84;57.55;100085.45;5192863;56;1143111;-75
2022/04/23 12:09:29;;;;;;;49.40;34.90;;;;;;;17.20;54.72;100078.34;5168852;56;1145366;-73
2022/04/23 12:14:45;;;;;;;6.08;4.87;;;;;;;17.47;54.81;100072.55;5199280;56;1143458;-75
2022/04/23 12:19:53;;;;;;;17.10;4.10;;;;;;;17.61;55.84;100072.81;5200936;56;1138923;-73
2022/04/23 12:25:16;;;;;;;4.93;3.80;;;;;;;17.50;55.54;100067.36;5216028;56;1141274;-76
2022/04/23 12:41:20;;;;;;;13.97;3.30;;;;;;;17.18;55.70;100061.14;4993187;58;1138579;-77
2022/04/23 12:46:26;;;;;;;17.40;3.67;;;;;;;17.02;54.10;100061.70;4881933;59;1139247;-77
2022/04/23 12:51:33;;;;;;;8.97;4.73;;;;;;;16.89;55.28;100051.55;5002780;58;1139160;-75
2022/04/23 12:56:39;;;;;;;14.33;5.07;;;;;;;16.81;54.65;100060.91;4987633;58;1136943;-73
2022/04/23 13:01:45;;;;;;;5.80;5.30;;;;;;;16.73;54.40;100055.59;4974121;59;1139172;-74
2022/04/23 13:12:14;;;;;;;12.03;5.25;;;;;;;16.57;55.48;100046.24;4977211;58;1141070;-75
2022/04/23 13:17:21;;;;;;;10.10;5.70;;;;;;;16.59;56.39;100040.23;5070706;56;1141077;-74
2022/04/23 13:22:27;;;;;;;10.17;4.17;;;;;;;16.66;55.74;100038.07;5157445;57;1141053;-78
2022/04/23 13:27:34;;;;;;;8.67;3.47;;;;;;;16.71;56.02;100035.73;5155903;57;1141276;-79
2022/04/23 13:32:42;;;;;;;5.13;2.97;;;;;;;16.88;56.32;100025.84;5157788;57;1138994;-74
2022/04/23 13:37:48;;;;;;;7.83;4.17;;;;;;;17.03;54.75;100017.95;5160617;57;1139165;-74
2022/04/23 13:42:54;;;;;;;6.90;3.20;;;;;;;17.08;53.12;100022.28;5121843;57;1139139;-75
2022/04/23 13:48:05;;;;;;;8.27;4.00;;;;;;;17.07;54.40;100014.77;5163567;57;1138960;-74
2022/04/23 13:53:11;;;;;;;10.13;2.90;;;;;;;17.05;55.48;100016.78;5185026;56;1139032;-75
2022/04/23 13:58:17;;;;;;;4.90;3.20;;;;;;;17.10;55.01;100010.92;5250333;56;1141176;-75
2022/04/23 14:14:09;;;;;;;12.28;4.25;;;;;;;17.27;54.58;99997.79;5161288;56;1139011;-75
2022/04/23 14:19:16;;;;;;;3.93;3.20;;;;;;;17.36;54.81;99994.09;5088913;57;1139117;-73
2022/04/23 14:24:22;;;;;;;3.87;2.83;;;;;;;17.44;54.41;99990.02;5117009;57;1137031;-74
2022/04/23 14:29:28;;;;;;;8.87;4.30;;;;;;;17.53;54.99;99988.98;5142104;57;1136956;-77
2022/04/23 14:34:34;;;;;;;4.90;2.50;;;;;;;17.65;54.91;99988.59;5098683;57;1136911;-78
2022/04/23 14:39:39;;;;;;;3.07;2.87;;;;;;;17.69;53.49;99988.07;5121945;57;1137022;-76
2022/04/23 14:44:45;;;;;;;31.80;18.00;;;;;;;17.64;51.12;99981.08;5150499;57;1136938;-73
2022/04/23 14:49:50;;;;;;;4.97;3.73;;;;;;;17.58;51.79;99981.23;5162050;56;1141096;-72
2022/04/23 14:54:56;;;;;;;10.73;4.37;;;;;;;17.57;51.48;99977.40;5142305;56;1136934;-74
2022/04/23 15:00:02;;;;;;;10.47;3.30;;;;;;;17.57;51.97;99971.55;5190097;56;1139161;-77
2022/04/23 15:05:09;;;;;;;8.22;3.32;;;;;;;17.49;51.58;99972.95;5193770;56;1138900;-74
2022/04/23 15:10:15;;;;;;;8.73;3.17;;;;;;;17.34;51.81;99971.20;5201990;56;1136867;-72
2022/04/23 15:15:21;;;;;;;9.80;3.90;;;;;;;17.21;51.83;99975.28;5203618;56;1137024;-73
2022/04/23 15:20:28;;;;;;;9.60;4.07;;;;;;;17.10;52.61;99970.84;5185634;56;1136929;-79
2022/04/23 15:25:34;;;;;;;4.13;3.67;;;;;;;17.13;52.47;99963.79;5161925;57;1136908;-75
2022/04/23 15:30:40;;;;;;;10.17;3.80;;;;;;;17.25;52.42;99956.23;5161854;56;1137182;-74
2022/04/23 15:35:46;;;;;;;8.47;5.57;;;;;;;17.47;52.83;99950.91;5161871;57;1138994;-75
2022/04/23 15:40:52;;;;;;;13.43;4.40;;;;;;;17.54;50.79;99955.05;5161761;57;1136854;-77
2022/04/23 15:46:01;;;;;;;3.77;2.90;;;;;;;17.65;50.72;99957.33;5172768;56;1136953;-77
2022/04/23 15:51:07;;;;;;;6.20;3.70;;;;;;;17.77;49.90;99953.23;5248546;56;1135099;-75
2022/04/23 15:56:13;;;;;;;8.70;3.40;;;;;;;17.80;48.80;99952.04;5248554;56;1134864;-72
2022/04/23 16:01:19;;;;;;;11.10;3.60;;;;;;;17.75;49.93;99944.55;5208256;56;1134788;-75
2022/04/23 16:06:24;;;;;;;4.93;3.63;;;;;;;17.64;48.99;99951.66;5161309;56;1136890;-74
2022/04/23 16:11:30;;;;;;;4.60;3.37;;;;;;;17.42;49.29;99947.91;5163915;56;1135016;-73
2022/04/23 16:16:36;;;;;;;20.03;4.50;;;;;;;17.27;50.18;99951.52;5170922;56;1134806;-75
2022/04/23 16:21:42;;;;;;;11.13;5.70;;;;;;;17.12;50.58;99942.91;5161568;56;1137124;-76
2022/04/23 16:26:47;;;;;;;17.53;9.67;;;;;;;16.92;50.79;99947.04;5211683;56;1137258;-75
2022/04/23 16:31:53;;;;;;;9.07;5.90;;;;;;;16.77;51.31;99940.76;5175331;56;1136953;-75
2022/04/23 16:47:46;;;;;;;8.50;4.93;;;;;;;16.64;52.75;99941.81;5210671;56;1134807;-77
2022/04/23 16:52:51;;;;;;;5.70;3.90;;;;;;;16.59;51.76;99938.28;5183136;56;1137122;-72
2022/04/23 16:57:57;;;;;;;4.23;3.60;;;;;;;16.58;52.14;99942.45;5156859;57;1136880;-73
2022/04/23 17:03:03;;;;;;;11.40;4.93;;;;;;;16.54;52.20;99935.28;5170284;56;1136998;-75
2022/04/23 17:08:09;;;;;;;17.30;5.97;;;;;;;16.48;52.23;99934.66;5174316;56;1139034;-73
2022/04/23 17:13:16;;;;;;;22.77;6.27;;;;;;;16.40;52.05;99931.98;5160632;56;1139272;-73
2022/04/23 17:18:21;;;;;;;13.03;5.77;;;;;;;16.29;52.43;99931.02;5161872;56;1138883;-72
2022/04/23 17:23:27;;;;;;;11.53;5.90;;;;;;;16.20;52.56;99931.52;5173677;56;1139169;-72
2022/04/23 17:28:33;;;;;;;25.37;11.60;;;;;;;16.10;53.05;99929.05;5204217;56;1139017;-74
2022/04/23 17:33:38;;;;;;;20.73;6.63;;;;;;;15.98;53.05;99932.23;5242381;56;1141057;-75
2022/04/23 17:38:57;;;;;;;23.83;13.03;;;;;;;15.82;52.89;99926.41;5208886;56;1139074;-74
2022/04/23 17:44:06;;;;;;;16.13;6.30;;;;;;;15.70;53.50;99930.41;5192513;56;1141103;-73
2022/04/23 17:49:10;;;;;;;25.20;11.47;;;;;;;15.58;53.77;99947.23;5192733;56;1139239;-73
2022/04/23 17:54:16;;;;;;;20.60;10.07;;;;;;;15.47;54.04;99939.50;5190828;56;1140986;-72
2022/04/23 17:59:22;;;;;;;23.43;9.77;;;;;;;15.33;54.23;99942.81;5191594;56;1141073;-75
2022/04/23 18:09:58;;;;;;;33.63;10.00;;;;;;;15.08;55.17;99950.75;5194588;56;1138982;-74
2022/04/23 18:15:04;;;;;;;27.35;8.43;;;;;;;14.97;55.57;99963.01;5188509;56;1141082;-78
2022/04/23 18:20:11;;;;;;;39.23;10.03;;;;;;;14.92;56.37;99965.34;5190758;56;1139381;-73
2022/04/23 18:25:17;;;;;;;59.00;11.07;;;;;;;14.87;57.01;99964.14;5195312;56;1141317;-74
2022/04/23 18:30:23;;;;;;;49.67;8.83;;;;;;;14.80;57.65;99962.63;5188907;56;1141113;-73
2022/04/23 18:35:30;;;;;;;37.43;14.03;;;;;;;14.74;58.15;99976.07;5181197;56;1138953;-75
2022/04/23 18:40:36;;;;;;;38.67;12.83;;;;;;;14.61;58.33;99974.84;5151890;57;1141173;-77
2022/04/23 18:45:41;;;;;;;45.30;11.20;;;;;;;14.51;58.66;99976.78;5201518;56;1141035;-74
2022/04/23 18:50:48;;;;;;;35.00;10.33;;;;;;;14.40;59.13;99969.39;5207327;56;1141080;-74
2022/04/23 18:55:53;;;;;;;35.10;11.33;;;;;;;14.29;59.49;99976.27;5156247;57;1141109;-74
2022/04/23 19:01:00;;;;;;;42.25;13.25;;;;;;;14.16;59.68;99975.02;5163435;57;1141116;-73
2022/04/23 19:06:06;;;;;;;57.45;18.02;;;;;;;14.04;60.39;99965.13;5182141;56;1141085;-76
2022/04/23 19:11:12;;;;;;;59.30;24.73;;;;;;;13.86;60.80;99979.77;5250891;56;1141137;-76
2022/04/23 19:16:20;;;;;;;54.23;19.80;;;;;;;13.73;61.46;99975.34;5165614;56;1141054;-75
2022/04/23 19:32:12;;;;;;;84.30;40.77;;;;;;;13.13;62.34;99976.36;5251234;56;1138917;-73
2022/04/23 19:37:22;;;;;;;116.17;45.97;;;;;;;12.97;62.48;99984.96;5250977;56;1139039;-74
2022/04/23 19:42:28;;;;;;;118.57;47.07;;;;;;;12.85;62.84;99979.97;5250642;56;1141164;-73
2022/04/23 19:47:34;;;;;;;128.77;46.93;;;;;;;12.68;63.01;99983.73;5245633;56;1141170;-75
2022/04/23 19:52:40;;;;;;;110.67;45.70;;;;;;;12.61;63.55;99983.15;5182929;56;1141061;-76
2022/04/23 19:57:45;;;;;;;114.73;40.37;;;;;;;12.47;64.31;99975.66;5208288;56;1141234;-73
2022/04/23 20:02:54;;;;;;;102.10;40.97;;;;;;;12.47;64.31;99975.66;5191050;56;1141078;-76
2022/04/23 20:07:59;;;;;;;84.63;30.97;;;;;;;12.46;64.47;99985.92;5186037;56;1141169;-74
2022/04/23 20:13:05;;;;;;;70.03;26.87;;;;;;;12.31;64.63;99990.35;5192956;56;1139060;-72
2022/04/23 20:18:11;;;;;;;66.10;24.60;;;;;;;12.21;64.99;99993.52;5194981;56;1139062;-75
2022/04/23 20:23:16;;;;;;;56.03;23.97;;;;;;;12.07;65.16;99993.13;5191757;56;1139018;-74
2022/04/23 20:28:23;;;;;;;64.73;26.47;;;;;;;11.88;65.62;99988.19;5192824;56;1137005;-71
2022/04/23 20:33:30;;;;;;;51.63;19.07;;;;;;;11.74;66.04;99987.25;5189008;56;1137057;-73
2022/04/23 20:38:36;;;;;;;29.13;13.83;;;;;;;11.69;66.55;99992.12;5194129;56;1141031;-76
2022/04/23 20:43:41;;;;;;;34.18;14.40;;;;;;;11.58;66.60;99988.28;5201898;56;1141048;-73
2022/04/23 20:48:47;;;;;;;49.47;19.97;;;;;;;11.46;66.84;99981.42;5222862;56;1141004;-77
2022/04/23 20:53:53;;;;;;;38.67;11.07;;;;;;;11.32;67.21;99977.36;5228863;56;1141019;-75
2022/04/23 20:58:59;;;;;;;23.03;9.83;;;;;;;11.23;67.87;99977.70;5195662;56;1141105;-75
2022/04/23 21:04:06;;;;;;;25.03;11.40;;;;;;;11.18;68.33;99982.56;5186582;56;1139183;-72
2022/04/23 21:09:11;;;;;;;25.70;8.40;;;;;;;11.14;68.46;99982.51;5220954;56;1141024;-73
2022/04/23 21:14:17;;;;;;;23.13;9.00;;;;;;;11.02;68.46;99988.02;5200061;56;1139009;-75
2022/04/23 21:19:23;;;;;;;19.23;10.53;;;;;;;10.90;68.85;99982.84;5222394;56;1139123;-70
2022/04/23 21:24:30;;;;;;;20.37;9.77;;;;;;;10.77;69.20;99990.66;5190145;56;1141044;-75
2022/04/23 21:29:35;;;;;;;15.00;9.53;;;;;;;10.62;69.47;99983.56;5193785;56;1138945;-73
2022/04/23 21:34:42;;;;;;;25.13;11.67;;;;;;;10.43;69.81;99979.02;5172426;56;1139011;-72
2022/04/23 21:39:47;;;;;;;24.33;11.83;;;;;;;10.34;70.51;99976.33;5167413;56;1141338;-70
2022/04/23 21:44:54;;;;;;;18.80;11.27;;;;;;;10.38;70.99;99973.78;5172815;56;1141144;-76
2022/04/23 21:50:00;;;;;;;24.05;12.63;;;;;;;10.41;71.06;99970.37;5220376;56;1141193;-74
2022/04/23 21:55:09;;;;;;;34.67;16.97;;;;;;;10.43;70.83;99963.63;5161373;57;1141165;-75
2022/04/23 22:00:32;;;;;;;48.07;22.70;;;;;;;10.24;69.92;99965.68;5159914;57;1141132;-73
2022/04/23 22:05:40;;;;;;;68.50;32.87;;;;;;;9.85;70.22;99964.57;5138252;57;1141092;-74
2022/04/23 22:10:47;;;;;;;56.33;28.67;;;;;;;9.84;71.38;99967.69;5163780;57;1136880;-74
2022/04/23 22:15:53;;;;;;;62.90;27.70;;;;;;;9.81;71.70;99960.02;5163528;57;1136855;-75
2022/04/23 22:20:59;;;;;;;62.60;28.73;;;;;;;9.69;71.80;99959.72;5163495;57;1136926;-75
2022/04/23 22:26:05;;;;;;;64.73;30.40;;;;;;;9.69;71.80;99959.72;5163554;57;1136926;-75
2022/04/23 22:31:12;;;;;;;98.03;44.37;;;;;;;9.45;71.86;99970.99;5163571;57;1136908;-76
2022/04/23 22:36:17;;;;;;;121.03;58.03;;;;;;;9.45;72.89;99963.91;5163493;57;1136925;-75
2022/04/23 22:41:23;;;;;;;138.20;65.57;;;;;;;9.49;73.14;99963.16;5163642;57;1139007;-76
2022/04/23 22:46:29;;;;;;;95.83;42.73;;;;;;;9.47;73.03;99967.75;5163427;57;1138986;-74
2022/04/23 22:51:35;;;;;;;54.73;26.17;;;;;;;9.41;72.99;99972.20;5115897;57;1136856;-71
2022/04/23 22:56:42;;;;;;;64.47;29.87;;;;;;;9.07;72.34;99970.11;5079743;57;1137038;-75
2022/04/23 23:01:47;;;;;;;69.53;32.10;;;;;;;8.94;73.29;99974.22;5111665;57;1136901;-74
2022/04/23 23:06:53;;;;;;;88.60;37.00;;;;;;;8.97;73.83;99966.55;5163607;57;1139010;-76
2022/04/23 23:12:00;;;;;;;65.47;27.97;;;;;;;8.99;74.00;99964.15;5152901;57;1139180;-73
2022/04/23 23:17:06;;;;;;;54.20;27.43;;;;;;;9.08;74.43;99965.20;5106329;57;1139005;-72
2022/04/23 23:22:12;;;;;;;55.17;23.83;;;;;;;9.14;74.29;99964.23;5164015;57;1138991;-78
2022/04/23 23:27:18;;;;;;;62.17;28.07;;;;;;;9.17;74.44;99963.13;5164244;57;1138972;-76
2022/04/23 23:32:23;;;;;;;67.53;35.77;;;;;;;9.16;74.14;99954.41;5164121;57;1139169;-73
2022/04/23 23:37:29;;;;;;;61.57;31.07;;;;;;;9.11;73.98;99963.64;5164113;57;1139115;-75
2022/04/23 23:42:35;;;;;;;50.80;25.80;;;;;;;9.04;73.99;99958.00;5164072;57;1134879;-73
2022/04/23 23:47:40;;;;;;;71.43;30.37;;;;;;;8.97;74.20;99953.36;5164177;57;1134770;-75
2022/04/23 23:52:46;;;;;;;61.57;29.03;;;;;;;8.89;74.28;99950.00;5164156;57;1135030;-73
2022/04/23 23:57:52;;;;;;;54.47;27.87;;;;;;;8.85;74.60;99946.43;5164100;57;1134990;-72
